Fletcher, Oklahoma
Current Conditions -  °F | °C
As of 7:43 AM on Sunday 23 Nov 2014 (Local Time) from KFSI Reporting Station
Overcast Overcast  
Wind Chill: 52°   Ceiling: 500
Heat Index: 52°   Visibility: 10mi
Dew Point: 52°   Wind: 10mph
Humidity: 100%   Direction: 190°S
Pressure: 29.45"   Gusts: NA
Location:  34.82°N, 98.24°W
Report Text: KFSI 231343Z AUTO 19009KT 10SM OVC005 11/11 A2945 RMK AO2
Loading
Personal Weather Stations






























Interactive Weather Map New forecast layout! Learn more

10-Day Weather Forecast

Advertisements
Track Severe Weather on mobile